sensor_id;sensor_type;location;lat;lon;timestamp;temperature;humidity
7034;DHT22;3558;53.176;10.412;2024-02-23T00:00:30;14.90;82.50
7034;DHT22;3558;53.176;10.412;2024-02-23T00:02:56;14.90;83.10
7034;DHT22;3558;53.176;10.412;2024-02-23T00:05:23;14.90;83.00
7034;DHT22;3558;53.176;10.412;2024-02-23T00:07:49;14.80;82.50
7034;DHT22;3558;53.176;10.412;2024-02-23T00:10:14;14.80;81.70
7034;DHT22;3558;53.176;10.412;2024-02-23T00:12:40;14.80;81.90
7034;DHT22;3558;53.176;10.412;2024-02-23T00:15:06;14.80;82.00
7034;DHT22;3558;53.176;10.412;2024-02-23T00:17:32;14.70;82.20
7034;DHT22;3558;53.176;10.412;2024-02-23T00:19:58;14.70;81.70
7034;DHT22;3558;53.176;10.412;2024-02-23T00:22:23;14.70;81.90
7034;DHT22;3558;53.176;10.412;2024-02-23T00:24:51;14.70;81.80
7034;DHT22;3558;53.176;10.412;2024-02-23T00:27:16;14.70;81.70
7034;DHT22;3558;53.176;10.412;2024-02-23T00:29:42;14.60;81.50
7034;DHT22;3558;53.176;10.412;2024-02-23T00:32:07;14.60;81.30
7034;DHT22;3558;53.176;10.412;2024-02-23T00:34:33;14.60;81.60
7034;DHT22;3558;53.176;10.412;2024-02-23T00:36:59;14.60;81.20
7034;DHT22;3558;53.176;10.412;2024-02-23T00:39:24;14.50;81.50
7034;DHT22;3558;53.176;10.412;2024-02-23T00:41:50;14.60;82.20
7034;DHT22;3558;53.176;10.412;2024-02-23T00:44:15;14.50;82.00
7034;DHT22;3558;53.176;10.412;2024-02-23T00:46:41;14.50;81.20
7034;DHT22;3558;53.176;10.412;2024-02-23T00:49:07;14.50;80.80
7034;DHT22;3558;53.176;10.412;2024-02-23T00:51:32;14.50;79.90
7034;DHT22;3558;53.176;10.412;2024-02-23T00:53:58;14.50;79.20
7034;DHT22;3558;53.176;10.412;2024-02-23T00:56:23;14.40;78.50
7034;DHT22;3558;53.176;10.412;2024-02-23T00:58:49;14.40;78.40
7034;DHT22;3558;53.176;10.412;2024-02-23T01:01:14;14.40;78.10
7034;DHT22;3558;53.176;10.412;2024-02-23T01:03:40;14.30;77.70
7034;DHT22;3558;53.176;10.412;2024-02-23T01:06:05;14.30;77.90
7034;DHT22;3558;53.176;10.412;2024-02-23T01:08:31;14.30;77.10
7034;DHT22;3558;53.176;10.412;2024-02-23T01:10:56;14.20;77.10
7034;DHT22;3558;53.176;10.412;2024-02-23T01:13:22;14.20;78.00
7034;DHT22;3558;53.176;10.412;2024-02-23T01:15:47;14.20;77.60
7034;DHT22;3558;53.176;10.412;2024-02-23T01:18:14;14.20;76.90
7034;DHT22;3558;53.176;10.412;2024-02-23T01:20:39;14.20;76.70
7034;DHT22;3558;53.176;10.412;2024-02-23T01:23:05;14.20;76.80
7034;DHT22;3558;53.176;10.412;2024-02-23T01:25:30;14.10;77.00
7034;DHT22;3558;53.176;10.412;2024-02-23T01:27:56;14.10;77.10
7034;DHT22;3558;53.176;10.412;2024-02-23T01:30:21;14.10;77.10
7034;DHT22;3558;53.176;10.412;2024-02-23T01:32:47;14.10;77.00
7034;DHT22;3558;53.176;10.412;2024-02-23T01:35:13;14.00;76.70
7034;DHT22;3558;53.176;10.412;2024-02-23T01:37:38;14.00;76.40
7034;DHT22;3558;53.176;10.412;2024-02-23T01:40:04;14.00;76.70
7034;DHT22;3558;53.176;10.412;2024-02-23T01:42:29;14.00;77.50
7034;DHT22;3558;53.176;10.412;2024-02-23T01:44:55;14.00;77.70
7034;DHT22;3558;53.176;10.412;2024-02-23T01:47:24;14.00;77.80
7034;DHT22;3558;53.176;10.412;2024-02-23T01:49:50;14.00;77.50
7034;DHT22;3558;53.176;10.412;2024-02-23T01:52:17;14.00;78.10
7034;DHT22;3558;53.176;10.412;2024-02-23T01:54:43;13.90;78.80
7034;DHT22;3558;53.176;10.412;2024-02-23T01:57:09;13.90;79.50
7034;DHT22;3558;53.176;10.412;2024-02-23T01:59:36;13.90;80.00
7034;DHT22;3558;53.176;10.412;2024-02-23T02:02:03;13.90;80.40
7034;DHT22;3558;53.176;10.412;2024-02-23T02:04:29;13.90;80.40
7034;DHT22;3558;53.176;10.412;2024-02-23T02:06:55;13.90;81.10
7034;DHT22;3558;53.176;10.412;2024-02-23T02:09:21;13.90;80.60
7034;DHT22;3558;53.176;10.412;2024-02-23T02:11:47;13.90;80.50
7034;DHT22;3558;53.176;10.412;2024-02-23T02:14:13;13.80;80.20
7034;DHT22;3558;53.176;10.412;2024-02-23T02:16:39;13.80;80.00
7034;DHT22;3558;53.176;10.412;2024-02-23T02:19:05;13.80;80.00
7034;DHT22;3558;53.176;10.412;2024-02-23T02:21:31;13.80;80.40
7034;DHT22;3558;53.176;10.412;2024-02-23T02:23:57;13.80;80.70
7034;DHT22;3558;53.176;10.412;2024-02-23T02:26:22;13.80;80.70
7034;DHT22;3558;53.176;10.412;2024-02-23T02:28:48;13.70;80.70
7034;DHT22;3558;53.176;10.412;2024-02-23T03:46:19;13.00;80.30
7034;DHT22;3558;53.176;10.412;2024-02-23T03:48:45;13.00;80.20
7034;DHT22;3558;53.176;10.412;2024-02-23T03:51:11;13.00;79.90
7034;DHT22;3558;53.176;10.412;2024-02-23T03:53:36;12.90;79.60
7034;DHT22;3558;53.176;10.412;2024-02-23T03:56:02;12.90;79.30
7034;DHT22;3558;53.176;10.412;2024-02-23T03:58:28;12.90;79.00
7034;DHT22;3558;53.176;10.412;2024-02-23T04:00:53;12.90;78.80
7034;DHT22;3558;53.176;10.412;2024-02-23T04:03:19;12.90;78.80
7034;DHT22;3558;53.176;10.412;2024-02-23T04:05:44;12.90;78.70
7034;DHT22;3558;53.176;10.412;2024-02-23T04:08:10;12.80;78.80
7034;DHT22;3558;53.176;10.412;2024-02-23T04:10:35;12.80;78.50
7034;DHT22;3558;53.176;10.412;2024-02-23T04:13:01;12.80;78.60
7034;DHT22;3558;53.176;10.412;2024-02-23T04:15:27;12.80;79.00
7034;DHT22;3558;53.176;10.412;2024-02-23T04:17:52;12.80;78.80
7034;DHT22;3558;53.176;10.412;2024-02-23T04:20:18;12.70;78.90
7034;DHT22;3558;53.176;10.412;2024-02-23T04:22:44;12.80;79.00
7034;DHT22;3558;53.176;10.412;2024-02-23T04:25:09;12.70;78.40
7034;DHT22;3558;53.176;10.412;2024-02-23T04:27:35;12.70;78.10
7034;DHT22;3558;53.176;10.412;2024-02-23T04:30:01;12.70;77.90
7034;DHT22;3558;53.176;10.412;2024-02-23T04:32:26;12.60;78.10
7034;DHT22;3558;53.176;10.412;2024-02-23T04:34:52;12.60;78.10
7034;DHT22;3558;53.176;10.412;2024-02-23T04:37:17;12.60;78.10
7034;DHT22;3558;53.176;10.412;2024-02-23T04:39:46;12.60;78.20
7034;DHT22;3558;53.176;10.412;2024-02-23T04:42:11;12.50;78.00
7034;DHT22;3558;53.176;10.412;2024-02-23T04:44:37;12.50;77.90
7034;DHT22;3558;53.176;10.412;2024-02-23T04:47:02;12.50;77.80
7034;DHT22;3558;53.176;10.412;2024-02-23T04:49:28;12.50;77.60
7034;DHT22;3558;53.176;10.412;2024-02-23T04:51:54;12.40;77.80
7034;DHT22;3558;53.176;10.412;2024-02-23T04:54:20;12.40;78.10
7034;DHT22;3558;53.176;10.412;2024-02-23T04:56:46;12.30;77.80
7034;DHT22;3558;53.176;10.412;2024-02-23T04:59:12;12.30;77.90
7034;DHT22;3558;53.176;10.412;2024-02-23T05:01:38;12.30;77.70
7034;DHT22;3558;53.176;10.412;2024-02-23T05:04:04;12.30;77.70
7034;DHT22;3558;53.176;10.412;2024-02-23T05:06:30;12.30;77.60
7034;DHT22;3558;53.176;10.412;2024-02-23T05:08:55;12.20;77.60
7034;DHT22;3558;53.176;10.412;2024-02-23T05:11:21;12.20;77.60
7034;DHT22;3558;53.176;10.412;2024-02-23T05:13:47;12.20;77.70
7034;DHT22;3558;53.176;10.412;2024-02-23T05:16:14;12.20;77.80
7034;DHT22;3558;53.176;10.412;2024-02-23T05:18:40;12.10;77.70
7034;DHT22;3558;53.176;10.412;2024-02-23T05:21:06;12.10;78.00
7034;DHT22;3558;53.176;10.412;2024-02-23T05:23:32;12.10;77.80
7034;DHT22;3558;53.176;10.412;2024-02-23T05:25:57;12.10;77.60
7034;DHT22;3558;53.176;10.412;2024-02-23T05:28:23;12.10;77.60
7034;DHT22;3558;53.176;10.412;2024-02-23T05:30:48;12.10;77.60
7034;DHT22;3558;53.176;10.412;2024-02-23T05:33:14;12.00;77.50
7034;DHT22;3558;53.176;10.412;2024-02-23T05:35:39;12.00;77.60
7034;DHT22;3558;53.176;10.412;2024-02-23T05:38:05;12.00;77.70
7034;DHT22;3558;53.176;10.412;2024-02-23T05:40:31;12.00;77.70
7034;DHT22;3558;53.176;10.412;2024-02-23T05:42:58;12.00;77.50
7034;DHT22;3558;53.176;10.412;2024-02-23T05:45:23;11.90;77.40
7034;DHT22;3558;53.176;10.412;2024-02-23T05:47:52;11.80;77.30
7034;DHT22;3558;53.176;10.412;2024-02-23T05:50:18;11.90;77.10
7034;DHT22;3558;53.176;10.412;2024-02-23T05:52:43;11.90;76.80
7034;DHT22;3558;53.176;10.412;2024-02-23T05:55:09;11.90;76.60
7034;DHT22;3558;53.176;10.412;2024-02-23T05:57:34;11.90;76.90
7034;DHT22;3558;53.176;10.412;2024-02-23T06:00:00;11.80;77.20
7034;DHT22;3558;53.176;10.412;2024-02-23T06:02:25;11.80;77.60
7034;DHT22;3558;53.176;10.412;2024-02-23T06:04:51;11.80;77.80
7034;DHT22;3558;53.176;10.412;2024-02-23T06:07:16;11.70;78.00
7034;DHT22;3558;53.176;10.412;2024-02-23T06:09:43;11.70;77.70
7034;DHT22;3558;53.176;10.412;2024-02-23T06:12:09;11.70;77.90
7034;DHT22;3558;53.176;10.412;2024-02-23T06:14:35;11.70;78.00
7034;DHT22;3558;53.176;10.412;2024-02-23T06:17:01;11.60;78.20
7034;DHT22;3558;53.176;10.412;2024-02-23T06:19:26;11.60;77.90
7034;DHT22;3558;53.176;10.412;2024-02-23T06:21:52;11.60;77.90
7034;DHT22;3558;53.176;10.412;2024-02-23T06:24:17;11.60;78.00
7034;DHT22;3558;53.176;10.412;2024-02-23T06:26:43;11.60;78.20
7034;DHT22;3558;53.176;10.412;2024-02-23T06:29:09;11.60;78.40
7034;DHT22;3558;53.176;10.412;2024-02-23T06:31:37;11.60;78.30
7034;DHT22;3558;53.176;10.412;2024-02-23T06:34:03;11.60;78.60
7034;DHT22;3558;53.176;10.412;2024-02-23T06:36:29;11.60;78.40
7034;DHT22;3558;53.176;10.412;2024-02-23T06:38:54;11.60;78.40
7034;DHT22;3558;53.176;10.412;2024-02-23T06:41:20;11.50;78.30
7034;DHT22;3558;53.176;10.412;2024-02-23T06:43:45;11.60;78.30
7034;DHT22;3558;53.176;10.412;2024-02-23T06:46:11;11.50;78.40
7034;DHT22;3558;53.176;10.412;2024-02-23T06:48:37;11.50;78.10
7034;DHT22;3558;53.176;10.412;2024-02-23T06:51:03;11.50;78.10
7034;DHT22;3558;53.176;10.412;2024-02-23T06:53:29;11.50;78.20
7034;DHT22;3558;53.176;10.412;2024-02-23T06:55:55;11.50;78.20
7034;DHT22;3558;53.176;10.412;2024-02-23T06:58:20;11.50;78.30
7034;DHT22;3558;53.176;10.412;2024-02-23T07:00:46;11.50;78.20
7034;DHT22;3558;53.176;10.412;2024-02-23T07:03:12;11.40;78.20
7034;DHT22;3558;53.176;10.412;2024-02-23T07:05:37;11.40;78.10
7034;DHT22;3558;53.176;10.412;2024-02-23T07:08:03;11.40;78.00
7034;DHT22;3558;53.176;10.412;2024-02-23T07:10:29;11.40;77.80
7034;DHT22;3558;53.176;10.412;2024-02-23T07:12:54;11.40;77.90
7034;DHT22;3558;53.176;10.412;2024-02-23T07:15:21;11.40;77.90
7034;DHT22;3558;53.176;10.412;2024-02-23T07:17:47;11.40;77.80
7034;DHT22;3558;53.176;10.412;2024-02-23T07:20:13;11.40;78.00
7034;DHT22;3558;53.176;10.412;2024-02-23T07:22:39;11.40;78.00
7034;DHT22;3558;53.176;10.412;2024-02-23T07:25:07;11.40;78.00
7034;DHT22;3558;53.176;10.412;2024-02-23T07:27:33;11.40;77.90
7034;DHT22;3558;53.176;10.412;2024-02-23T07:29:59;11.40;78.10
7034;DHT22;3558;53.176;10.412;2024-02-23T07:32:24;11.40;78.00
7034;DHT22;3558;53.176;10.412;2024-02-23T07:34:50;11.40;77.70
7034;DHT22;3558;53.176;10.412;2024-02-23T07:37:15;11.40;77.80
7034;DHT22;3558;53.176;10.412;2024-02-23T07:39:41;11.40;77.60
7034;DHT22;3558;53.176;10.412;2024-02-23T07:42:07;11.40;77.60
7034;DHT22;3558;53.176;10.412;2024-02-23T07:44:35;11.30;77.90
7034;DHT22;3558;53.176;10.412;2024-02-23T07:47:00;11.40;78.10
7034;DHT22;3558;53.176;10.412;2024-02-23T07:49:26;11.40;78.20
7034;DHT22;3558;53.176;10.412;2024-02-23T07:51:53;11.40;78.20
7034;DHT22;3558;53.176;10.412;2024-02-23T07:54:19;11.40;78.10
7034;DHT22;3558;53.176;10.412;2024-02-23T07:56:44;11.40;78.00
7034;DHT22;3558;53.176;10.412;2024-02-23T07:59:10;11.40;78.10
7034;DHT22;3558;53.176;10.412;2024-02-23T08:01:35;11.40;77.80
7034;DHT22;3558;53.176;10.412;2024-02-23T08:04:01;11.40;77.80
7034;DHT22;3558;53.176;10.412;2024-02-23T08:06:26;11.50;77.70
7034;DHT22;3558;53.176;10.412;2024-02-23T08:08:52;11.50;77.70
7034;DHT22;3558;53.176;10.412;2024-02-23T08:11:19;11.40;78.10
7034;DHT22;3558;53.176;10.412;2024-02-23T08:13:45;11.50;78.10
7034;DHT22;3558;53.176;10.412;2024-02-23T08:16:10;11.50;77.70
7034;DHT22;3558;53.176;10.412;2024-02-23T08:18:36;11.50;77.70
7034;DHT22;3558;53.176;10.412;2024-02-23T08:21:02;11.50;78.00
7034;DHT22;3558;53.176;10.412;2024-02-23T08:23:28;11.50;78.20
7034;DHT22;3558;53.176;10.412;2024-02-23T08:25:55;11.40;78.60
7034;DHT22;3558;53.176;10.412;2024-02-23T08:28:22;11.60;78.50
7034;DHT22;3558;53.176;10.412;2024-02-23T08:30:48;11.50;78.50
7034;DHT22;3558;53.176;10.412;2024-02-23T08:33:14;11.50;78.50
7034;DHT22;3558;53.176;10.412;2024-02-23T08:35:39;11.50;78.70
7034;DHT22;3558;53.176;10.412;2024-02-23T08:38:05;11.60;78.60
7034;DHT22;3558;53.176;10.412;2024-02-23T08:40:30;11.60;78.90
7034;DHT22;3558;53.176;10.412;2024-02-23T08:42:56;11.60;78.90
7034;DHT22;3558;53.176;10.412;2024-02-23T08:45:22;11.70;79.00
7034;DHT22;3558;53.176;10.412;2024-02-23T08:47:47;11.60;78.80
7034;DHT22;3558;53.176;10.412;2024-02-23T08:50:12;11.70;78.90
7034;DHT22;3558;53.176;10.412;2024-02-23T08:52:38;11.70;78.90
7034;DHT22;3558;53.176;10.412;2024-02-23T08:55:04;11.70;78.90
7034;DHT22;3558;53.176;10.412;2024-02-23T08:57:29;11.70;79.10
7034;DHT22;3558;53.176;10.412;2024-02-23T08:59:55;11.80;79.10
7034;DHT22;3558;53.176;10.412;2024-02-23T09:02:24;11.80;79.20
7034;DHT22;3558;53.176;10.412;2024-02-23T09:04:49;11.80;79.20
7034;DHT22;3558;53.176;10.412;2024-02-23T09:07:15;11.80;79.30
7034;DHT22;3558;53.176;10.412;2024-02-23T09:09:40;11.80;79.30
7034;DHT22;3558;53.176;10.412;2024-02-23T09:12:06;11.90;79.40
7034;DHT22;3558;53.176;10.412;2024-02-23T09:14:35;11.90;79.40
7034;DHT22;3558;53.176;10.412;2024-02-23T09:17:03;11.90;79.40
7034;DHT22;3558;53.176;10.412;2024-02-23T09:19:28;11.90;79.50
7034;DHT22;3558;53.176;10.412;2024-02-23T09:21:54;11.90;79.60
7034;DHT22;3558;53.176;10.412;2024-02-23T09:24:20;11.90;79.80
7034;DHT22;3558;53.176;10.412;2024-02-23T09:26:48;12.00;79.90
7034;DHT22;3558;53.176;10.412;2024-02-23T09:29:14;12.00;79.90
7034;DHT22;3558;53.176;10.412;2024-02-23T09:31:39;12.10;80.40
7034;DHT22;3558;53.176;10.412;2024-02-23T09:34:05;12.10;79.90
7034;DHT22;3558;53.176;10.412;2024-02-23T09:36:30;12.10;80.10
7034;DHT22;3558;53.176;10.412;2024-02-23T09:38:56;12.10;79.90
7034;DHT22;3558;53.176;10.412;2024-02-23T09:41:23;12.20;79.60
7034;DHT22;3558;53.176;10.412;2024-02-23T09:43:49;12.10;79.60
7034;DHT22;3558;53.176;10.412;2024-02-23T09:46:16;12.20;79.80
7034;DHT22;3558;53.176;10.412;2024-02-23T09:48:45;12.20;79.70
7034;DHT22;3558;53.176;10.412;2024-02-23T09:51:12;12.20;79.80
7034;DHT22;3558;53.176;10.412;2024-02-23T09:53:38;12.30;79.90
7034;DHT22;3558;53.176;10.412;2024-02-23T09:56:05;12.20;79.80
7034;DHT22;3558;53.176;10.412;2024-02-23T09:58:35;12.30;79.40
7034;DHT22;3558;53.176;10.412;2024-02-23T10:01:02;12.30;78.90
7034;DHT22;3558;53.176;10.412;2024-02-23T10:03:28;12.40;78.70
7034;DHT22;3558;53.176;10.412;2024-02-23T10:05:56;12.40;78.40
7034;DHT22;3558;53.176;10.412;2024-02-23T10:08:22;12.40;78.70
7034;DHT22;3558;53.176;10.412;2024-02-23T10:10:47;12.40;78.60
7034;DHT22;3558;53.176;10.412;2024-02-23T10:13:18;12.40;78.70
7034;DHT22;3558;53.176;10.412;2024-02-23T10:15:46;12.40;78.80
7034;DHT22;3558;53.176;10.412;2024-02-23T10:18:12;12.50;78.50
7034;DHT22;3558;53.176;10.412;2024-02-23T10:20:37;12.50;78.60
7034;DHT22;3558;53.176;10.412;2024-02-23T10:23:04;12.50;78.70
7034;DHT22;3558;53.176;10.412;2024-02-23T10:25:30;12.60;79.30
7034;DHT22;3558;53.176;10.412;2024-02-23T10:27:55;12.60;78.80
7034;DHT22;3558;53.176;10.412;2024-02-23T10:30:21;12.60;78.90
7034;DHT22;3558;53.176;10.412;2024-02-23T10:32:46;12.60;79.20
7034;DHT22;3558;53.176;10.412;2024-02-23T10:35:16;12.70;79.30
7034;DHT22;3558;53.176;10.412;2024-02-23T10:37:43;12.70;79.30
7034;DHT22;3558;53.176;10.412;2024-02-23T10:40:12;12.70;79.40
7034;DHT22;3558;53.176;10.412;2024-02-23T10:42:38;12.80;79.30
7034;DHT22;3558;53.176;10.412;2024-02-23T10:45:05;12.80;79.30
7034;DHT22;3558;53.176;10.412;2024-02-23T10:47:32;12.90;79.10
7034;DHT22;3558;53.176;10.412;2024-02-23T10:50:01;12.90;79.00
7034;DHT22;3558;53.176;10.412;2024-02-23T10:52:28;13.00;79.10
7034;DHT22;3558;53.176;10.412;2024-02-23T10:54:55;13.00;79.30
7034;DHT22;3558;53.176;10.412;2024-02-23T10:57:21;13.10;79.40
7034;DHT22;3558;53.176;10.412;2024-02-23T10:59:47;13.10;79.10
7034;DHT22;3558;53.176;10.412;2024-02-23T11:02:18;13.10;79.20
7034;DHT22;3558;53.176;10.412;2024-02-23T11:04:49;13.20;79.30
7034;DHT22;3558;53.176;10.412;2024-02-23T11:07:18;13.20;79.30
7034;DHT22;3558;53.176;10.412;2024-02-23T11:09:49;13.30;79.40
7034;DHT22;3558;53.176;10.412;2024-02-23T11:12:22;13.30;79.50
7034;DHT22;3558;53.176;10.412;2024-02-23T11:14:49;13.40;79.50
7034;DHT22;3558;53.176;10.412;2024-02-23T11:17:19;13.40;79.40
7034;DHT22;3558;53.176;10.412;2024-02-23T11:19:49;13.40;79.40
7034;DHT22;3558;53.176;10.412;2024-02-23T11:22:24;13.50;79.40
7034;DHT22;3558;53.176;10.412;2024-02-23T11:24:50;13.50;79.40
7034;DHT22;3558;53.176;10.412;2024-02-23T11:27:16;13.60;79.40
7034;DHT22;3558;53.176;10.412;2024-02-23T11:29:47;13.60;79.50
7034;DHT22;3558;53.176;10.412;2024-02-23T11:32:15;13.70;79.40
7034;DHT22;3558;53.176;10.412;2024-02-23T11:34:41;13.70;79.40
7034;DHT22;3558;53.176;10.412;2024-02-23T11:37:10;13.80;79.40
7034;DHT22;3558;53.176;10.412;2024-02-23T11:39:39;13.80;79.30
7034;DHT22;3558;53.176;10.412;2024-02-23T11:42:06;13.90;79.30
7034;DHT22;3558;53.176;10.412;2024-02-23T11:44:31;13.90;79.30
7034;DHT22;3558;53.176;10.412;2024-02-23T11:46:58;13.90;79.90
7034;DHT22;3558;53.176;10.412;2024-02-23T11:49:28;13.90;79.40
7034;DHT22;3558;53.176;10.412;2024-02-23T11:51:55;14.00;79.40
7034;DHT22;3558;53.176;10.412;2024-02-23T11:54:21;14.00;79.30
7034;DHT22;3558;53.176;10.412;2024-02-23T11:56:47;14.00;79.10
7034;DHT22;3558;53.176;10.412;2024-02-23T11:59:15;14.00;79.00
7034;DHT22;3558;53.176;10.412;2024-02-23T12:01:41;14.10;79.00
7034;DHT22;3558;53.176;10.412;2024-02-23T12:04:07;14.10;78.20
7034;DHT22;3558;53.176;10.412;2024-02-23T12:06:33;14.10;77.70
7034;DHT22;3558;53.176;10.412;2024-02-23T12:08:59;14.10;77.30
7034;DHT22;3558;53.176;10.412;2024-02-23T12:11:25;14.10;76.90
7034;DHT22;3558;53.176;10.412;2024-02-23T12:13:51;14.20;76.80
7034;DHT22;3558;53.176;10.412;2024-02-23T12:16:16;14.10;76.40
7034;DHT22;3558;53.176;10.412;2024-02-23T12:18:42;14.20;76.30
7034;DHT22;3558;53.176;10.412;2024-02-23T12:21:08;14.20;77.00
7034;DHT22;3558;53.176;10.412;2024-02-23T12:23:44;14.20;76.30
7034;DHT22;3558;53.176;10.412;2024-02-23T12:26:12;14.20;76.00
7034;DHT22;3558;53.176;10.412;2024-02-23T12:28:38;14.20;76.10
7034;DHT22;3558;53.176;10.412;2024-02-23T12:31:05;14.20;76.00
7034;DHT22;3558;53.176;10.412;2024-02-23T12:33:35;14.20;75.90
7034;DHT22;3558;53.176;10.412;2024-02-23T12:36:01;14.20;75.90
7034;DHT22;3558;53.176;10.412;2024-02-23T12:38:27;14.20;76.10
7034;DHT22;3558;53.176;10.412;2024-02-23T12:40:53;14.30;75.80
7034;DHT22;3558;53.176;10.412;2024-02-23T12:43:18;14.30;75.50
7034;DHT22;3558;53.176;10.412;2024-02-23T12:45:47;14.30;75.40
7034;DHT22;3558;53.176;10.412;2024-02-23T12:48:15;14.30;75.40
7034;DHT22;3558;53.176;10.412;2024-02-23T12:50:41;14.30;75.60
7034;DHT22;3558;53.176;10.412;2024-02-23T12:53:07;14.30;75.80
7034;DHT22;3558;53.176;10.412;2024-02-23T12:55:33;14.30;76.00
7034;DHT22;3558;53.176;10.412;2024-02-23T12:57:59;14.40;75.80
7034;DHT22;3558;53.176;10.412;2024-02-23T13:00:25;14.40;75.80
7034;DHT22;3558;53.176;10.412;2024-02-23T13:02:50;14.40;75.60
7034;DHT22;3558;53.176;10.412;2024-02-23T13:05:16;14.40;75.50
7034;DHT22;3558;53.176;10.412;2024-02-23T13:07:41;14.40;75.80
7034;DHT22;3558;53.176;10.412;2024-02-23T13:10:08;14.40;76.00
7034;DHT22;3558;53.176;10.412;2024-02-23T13:12:33;14.40;75.90
7034;DHT22;3558;53.176;10.412;2024-02-23T13:14:59;14.40;76.00
7034;DHT22;3558;53.176;10.412;2024-02-23T13:17:24;14.40;76.10
7034;DHT22;3558;53.176;10.412;2024-02-23T13:19:50;14.50;75.90
7034;DHT22;3558;53.176;10.412;2024-02-23T13:22:16;14.50;75.80
7034;DHT22;3558;53.176;10.412;2024-02-23T13:24:41;14.60;75.70
7034;DHT22;3558;53.176;10.412;2024-02-23T13:27:07;14.50;75.60
7034;DHT22;3558;53.176;10.412;2024-02-23T13:29:32;14.50;75.50
7034;DHT22;3558;53.176;10.412;2024-02-23T13:31:58;14.50;75.20
7034;DHT22;3558;53.176;10.412;2024-02-23T13:34:23;14.50;74.60
7034;DHT22;3558;53.176;10.412;2024-02-23T13:36:49;14.60;74.90
7034;DHT22;3558;53.176;10.412;2024-02-23T13:39:15;14.60;74.80
7034;DHT22;3558;53.176;10.412;2024-02-23T13:41:41;14.60;74.50
7034;DHT22;3558;53.176;10.412;2024-02-23T13:44:06;14.50;73.90
7034;DHT22;3558;53.176;10.412;2024-02-23T13:46:36;14.50;73.10
7034;DHT22;3558;53.176;10.412;2024-02-23T13:49:04;14.50;72.80
7034;DHT22;3558;53.176;10.412;2024-02-23T13:51:31;14.50;72.70
7034;DHT22;3558;53.176;10.412;2024-02-23T13:53:57;14.50;72.80
7034;DHT22;3558;53.176;10.412;2024-02-23T13:56:22;14.50;72.80
7034;DHT22;3558;53.176;10.412;2024-02-23T13:58:48;14.40;72.60
7034;DHT22;3558;53.176;10.412;2024-02-23T14:01:14;14.40;72.60
7034;DHT22;3558;53.176;10.412;2024-02-23T14:03:40;14.40;72.70
7034;DHT22;3558;53.176;10.412;2024-02-23T14:06:05;14.40;73.10
7034;DHT22;3558;53.176;10.412;2024-02-23T14:08:32;14.40;73.50
7034;DHT22;3558;53.176;10.412;2024-02-23T14:10:59;14.40;72.90
7034;DHT22;3558;53.176;10.412;2024-02-23T14:13:25;14.40;72.60
7034;DHT22;3558;53.176;10.412;2024-02-23T14:15:50;14.30;72.40
7034;DHT22;3558;53.176;10.412;2024-02-23T14:18:16;14.40;72.90
7034;DHT22;3558;53.176;10.412;2024-02-23T14:20:41;14.40;72.30
7034;DHT22;3558;53.176;10.412;2024-02-23T14:23:07;14.30;72.10
7034;DHT22;3558;53.176;10.412;2024-02-23T14:25:33;14.30;72.00
7034;DHT22;3558;53.176;10.412;2024-02-23T14:27:58;14.30;72.30
7034;DHT22;3558;53.176;10.412;2024-02-23T14:30:24;14.30;72.20
7034;DHT22;3558;53.176;10.412;2024-02-23T14:32:49;14.30;72.30
7034;DHT22;3558;53.176;10.412;2024-02-23T14:35:15;14.20;72.20
7034;DHT22;3558;53.176;10.412;2024-02-23T14:37:40;14.30;72.90
7034;DHT22;3558;53.176;10.412;2024-02-23T14:40:06;14.30;72.30
7034;DHT22;3558;53.176;10.412;2024-02-23T14:42:32;14.30;72.40
7034;DHT22;3558;53.176;10.412;2024-02-23T14:44:57;14.30;72.40
7034;DHT22;3558;53.176;10.412;2024-02-23T14:47:23;14.20;72.30
7034;DHT22;3558;53.176;10.412;2024-02-23T14:49:48;14.30;72.40
7034;DHT22;3558;53.176;10.412;2024-02-23T14:52:15;14.30;72.40
7034;DHT22;3558;53.176;10.412;2024-02-23T14:54:40;14.30;72.40
7034;DHT22;3558;53.176;10.412;2024-02-23T14:57:06;14.30;72.40
7034;DHT22;3558;53.176;10.412;2024-02-23T14:59:33;14.30;72.40
7034;DHT22;3558;53.176;10.412;2024-02-23T15:02:01;14.30;72.50
7034;DHT22;3558;53.176;10.412;2024-02-23T15:04:27;14.30;72.30
7034;DHT22;3558;53.176;10.412;2024-02-23T15:06:52;14.30;72.30
7034;DHT22;3558;53.176;10.412;2024-02-23T15:09:18;14.20;72.30
7034;DHT22;3558;53.176;10.412;2024-02-23T15:11:43;14.20;72.40
7034;DHT22;3558;53.176;10.412;2024-02-23T15:14:09;14.30;72.70
7034;DHT22;3558;53.176;10.412;2024-02-23T15:16:34;14.20;72.70
7034;DHT22;3558;53.176;10.412;2024-02-23T15:19:01;14.20;72.80
7034;DHT22;3558;53.176;10.412;2024-02-23T15:21:27;14.20;72.80
7034;DHT22;3558;53.176;10.412;2024-02-23T15:23:52;14.20;72.90
7034;DHT22;3558;53.176;10.412;2024-02-23T15:26:18;14.20;73.20
7034;DHT22;3558;53.176;10.412;2024-02-23T15:28:43;14.20;73.30
7034;DHT22;3558;53.176;10.412;2024-02-23T15:31:09;14.20;73.10
7034;DHT22;3558;53.176;10.412;2024-02-23T15:33:35;14.20;72.90
7034;DHT22;3558;53.176;10.412;2024-02-23T15:36:05;14.20;72.90
7034;DHT22;3558;53.176;10.412;2024-02-23T15:38:30;14.20;72.60
7034;DHT22;3558;53.176;10.412;2024-02-23T15:40:56;14.20;72.50
7034;DHT22;3558;53.176;10.412;2024-02-23T15:43:22;14.20;73.00
7034;DHT22;3558;53.176;10.412;2024-02-23T15:45:47;14.20;72.40
7034;DHT22;3558;53.176;10.412;2024-02-23T15:48:13;14.20;72.10
7034;DHT22;3558;53.176;10.412;2024-02-23T15:50:39;14.20;72.00
7034;DHT22;3558;53.176;10.412;2024-02-23T15:53:04;14.10;72.00
7034;DHT22;3558;53.176;10.412;2024-02-23T15:55:30;14.10;72.10
7034;DHT22;3558;53.176;10.412;2024-02-23T15:57:56;14.10;72.30
7034;DHT22;3558;53.176;10.412;2024-02-23T16:00:21;14.10;72.40
7034;DHT22;3558;53.176;10.412;2024-02-23T16:02:47;14.10;73.00
7034;DHT22;3558;53.176;10.412;2024-02-23T16:05:12;14.20;73.10
7034;DHT22;3558;53.176;10.412;2024-02-23T16:07:38;14.10;72.90
7034;DHT22;3558;53.176;10.412;2024-02-23T16:10:03;14.10;73.00
7034;DHT22;3558;53.176;10.412;2024-02-23T16:12:30;14.10;73.20
7034;DHT22;3558;53.176;10.412;2024-02-23T16:14:55;14.10;73.20
7034;DHT22;3558;53.176;10.412;2024-02-23T16:17:22;14.10;73.00
7034;DHT22;3558;53.176;10.412;2024-02-23T16:19:47;14.10;73.20
7034;DHT22;3558;53.176;10.412;2024-02-23T16:22:13;14.10;73.30
7034;DHT22;3558;53.176;10.412;2024-02-23T16:24:38;14.10;73.50
7034;DHT22;3558;53.176;10.412;2024-02-23T16:27:04;14.00;73.80
7034;DHT22;3558;53.176;10.412;2024-02-23T16:29:30;14.00;74.30
7034;DHT22;3558;53.176;10.412;2024-02-23T16:31:55;14.00;74.30
7034;DHT22;3558;53.176;10.412;2024-02-23T16:34:21;14.00;74.30
7034;DHT22;3558;53.176;10.412;2024-02-23T16:36:47;14.00;74.60
7034;DHT22;3558;53.176;10.412;2024-02-23T16:39:12;13.90;74.60
7034;DHT22;3558;53.176;10.412;2024-02-23T16:41:38;13.90;74.50
7034;DHT22;3558;53.176;10.412;2024-02-23T16:44:03;13.90;75.60
7034;DHT22;3558;53.176;10.412;2024-02-23T16:46:29;13.90;75.00
7034;DHT22;3558;53.176;10.412;2024-02-23T16:48:55;13.90;75.00
7034;DHT22;3558;53.176;10.412;2024-02-23T16:51:20;13.90;75.10